sensor_id;sensor_type;location;lat;lon;timestamp;temperature;humidity
578;DHT22;275;48.492;9.214;2023-03-01T00:02:16;2.80;31.70
578;DHT22;275;48.492;9.214;2023-03-01T00:04:43;2.80;31.50
578;DHT22;275;48.492;9.214;2023-03-01T00:07:10;2.80;31.40
578;DHT22;275;48.492;9.214;2023-03-01T00:09:37;3.10;30.80
578;DHT22;275;48.492;9.214;2023-03-01T00:12:06;3.10;30.50
578;DHT22;275;48.492;9.214;2023-03-01T00:14:33;2.90;30.80
578;DHT22;275;48.492;9.214;2023-03-01T00:17:00;3.00;30.60
578;DHT22;275;48.492;9.214;2023-03-01T00:19:27;3.10;30.50
578;DHT22;275;48.492;9.214;2023-03-01T00:21:54;3.10;30.80
578;DHT22;275;48.492;9.214;2023-03-01T00:24:21;3.10;30.90
578;DHT22;275;48.492;9.214;2023-03-01T00:26:48;3.00;31.10
578;DHT22;275;48.492;9.214;2023-03-01T00:29:16;3.10;30.80
578;DHT22;275;48.492;9.214;2023-03-01T00:31:43;2.80;31.50
578;DHT22;275;48.492;9.214;2023-03-01T00:34:10;2.60;31.60
578;DHT22;275;48.492;9.214;2023-03-01T00:36:37;2.10;32.60
578;DHT22;275;48.492;9.214;2023-03-01T00:39:05;2.00;33.10
578;DHT22;275;48.492;9.214;2023-03-01T00:41:32;2.20;32.60
578;DHT22;275;48.492;9.214;2023-03-01T00:44:00;2.50;32.10
578;DHT22;275;48.492;9.214;2023-03-01T00:46:28;2.60;31.70
578;DHT22;275;48.492;9.214;2023-03-01T00:48:56;2.60;31.50
578;DHT22;275;48.492;9.214;2023-03-01T00:51:24;2.80;31.30
578;DHT22;275;48.492;9.214;2023-03-01T00:53:52;2.90;31.00
578;DHT22;275;48.492;9.214;2023-03-01T00:56:19;3.00;30.60
578;DHT22;275;48.492;9.214;2023-03-01T00:58:46;3.00;30.20
578;DHT22;275;48.492;9.214;2023-03-01T01:01:15;3.10;30.40
578;DHT22;275;48.492;9.214;2023-03-01T01:03:46;3.00;30.80
578;DHT22;275;48.492;9.214;2023-03-01T01:06:17;3.00;30.40
578;DHT22;275;48.492;9.214;2023-03-01T01:08:44;2.70;31.20
578;DHT22;275;48.492;9.214;2023-03-01T01:11:11;2.70;31.00
578;DHT22;275;48.492;9.214;2023-03-01T01:13:39;2.70;31.20
578;DHT22;275;48.492;9.214;2023-03-01T01:16:06;2.60;31.50
578;DHT22;275;48.492;9.214;2023-03-01T01:18:33;2.40;31.50
578;DHT22;275;48.492;9.214;2023-03-01T01:21:05;2.50;31.50
578;DHT22;275;48.492;9.214;2023-03-01T01:23:32;2.70;31.00
578;DHT22;275;48.492;9.214;2023-03-01T01:26:04;2.40;31.70
578;DHT22;275;48.492;9.214;2023-03-01T01:28:31;2.30;32.00
578;DHT22;275;48.492;9.214;2023-03-01T01:30:58;2.30;31.70
578;DHT22;275;48.492;9.214;2023-03-01T01:33:25;2.30;31.90
578;DHT22;275;48.492;9.214;2023-03-01T01:35:52;2.30;31.70
578;DHT22;275;48.492;9.214;2023-03-01T01:38:20;2.50;31.50
578;DHT22;275;48.492;9.214;2023-03-01T01:40:49;2.60;31.10
578;DHT22;275;48.492;9.214;2023-03-01T01:43:20;2.80;30.80
578;DHT22;275;48.492;9.214;2023-03-01T01:45:47;2.80;30.80
578;DHT22;275;48.492;9.214;2023-03-01T01:48:18;2.60;31.20
578;DHT22;275;48.492;9.214;2023-03-01T01:50:48;2.80;30.70
578;DHT22;275;48.492;9.214;2023-03-01T01:53:18;2.90;30.50
578;DHT22;275;48.492;9.214;2023-03-01T01:55:50;2.80;31.10
578;DHT22;275;48.492;9.214;2023-03-01T01:58:19;2.40;32.00
578;DHT22;275;48.492;9.214;2023-03-01T02:00:47;2.50;32.00
578;DHT22;275;48.492;9.214;2023-03-01T02:03:18;2.10;33.20
578;DHT22;275;48.492;9.214;2023-03-01T02:05:49;2.10;32.80
578;DHT22;275;48.492;9.214;2023-03-01T02:08:20;2.40;32.40
578;DHT22;275;48.492;9.214;2023-03-01T02:10:50;2.60;32.00
578;DHT22;275;48.492;9.214;2023-03-01T02:13:18;2.60;32.20
578;DHT22;275;48.492;9.214;2023-03-01T02:15:45;2.50;32.10
578;DHT22;275;48.492;9.214;2023-03-01T02:18:14;2.50;32.10
578;DHT22;275;48.492;9.214;2023-03-01T02:20:51;2.90;31.50
578;DHT22;275;48.492;9.214;2023-03-01T02:23:19;2.90;31.00
578;DHT22;275;48.492;9.214;2023-03-01T02:25:53;3.40;30.40
578;DHT22;275;48.492;9.214;2023-03-01T02:28:30;3.70;29.60
578;DHT22;275;48.492;9.214;2023-03-01T02:30:57;3.80;29.50
578;DHT22;275;48.492;9.214;2023-03-01T02:33:41;3.80;29.50
578;DHT22;275;48.492;9.214;2023-03-01T02:36:11;4.00;29.10
578;DHT22;275;48.492;9.214;2023-03-01T02:38:40;4.00;29.30
578;DHT22;275;48.492;9.214;2023-03-01T02:41:08;3.60;29.60
578;DHT22;275;48.492;9.214;2023-03-01T02:43:38;3.60;30.10
578;DHT22;275;48.492;9.214;2023-03-01T02:46:06;3.10;30.30
578;DHT22;275;48.492;9.214;2023-03-01T02:48:42;2.90;31.30
578;DHT22;275;48.492;9.214;2023-03-01T02:51:18;3.10;31.00
578;DHT22;275;48.492;9.214;2023-03-01T02:53:58;3.60;30.00
578;DHT22;275;48.492;9.214;2023-03-01T02:56:29;3.70;29.80
578;DHT22;275;48.492;9.214;2023-03-01T02:58:58;3.80;29.50
578;DHT22;275;48.492;9.214;2023-03-01T03:01:27;3.70;29.50
578;DHT22;275;48.492;9.214;2023-03-01T03:04:02;3.30;30.40
578;DHT22;275;48.492;9.214;2023-03-01T03:06:29;3.30;30.50
578;DHT22;275;48.492;9.214;2023-03-01T03:08:56;3.20;30.70
578;DHT22;275;48.492;9.214;2023-03-01T03:11:23;3.10;30.90
578;DHT22;275;48.492;9.214;2023-03-01T03:13:50;2.90;31.20
578;DHT22;275;48.492;9.214;2023-03-01T03:16:19;3.00;31.60
578;DHT22;275;48.492;9.214;2023-03-01T03:18:46;3.50;30.20
578;DHT22;275;48.492;9.214;2023-03-01T03:21:13;3.00;31.10
578;DHT22;275;48.492;9.214;2023-03-01T03:23:42;3.40;30.20
578;DHT22;275;48.492;9.214;2023-03-01T03:26:09;3.60;29.90
578;DHT22;275;48.492;9.214;2023-03-01T03:28:40;3.40;30.10
578;DHT22;275;48.492;9.214;2023-03-01T03:31:07;3.20;30.90
578;DHT22;275;48.492;9.214;2023-03-01T03:33:36;3.60;30.20
578;DHT22;275;48.492;9.214;2023-03-01T03:36:03;3.10;31.10
578;DHT22;275;48.492;9.214;2023-03-01T03:38:30;3.00;31.40
578;DHT22;275;48.492;9.214;2023-03-01T03:41:02;2.90;31.70
578;DHT22;275;48.492;9.214;2023-03-01T03:43:30;2.70;32.20
578;DHT22;275;48.492;9.214;2023-03-01T03:45:57;2.30;33.40
578;DHT22;275;48.492;9.214;2023-03-01T03:48:24;2.40;33.20
578;DHT22;275;48.492;9.214;2023-03-01T03:50:54;2.70;32.70
578;DHT22;275;48.492;9.214;2023-03-01T03:53:22;2.40;33.20
578;DHT22;275;48.492;9.214;2023-03-01T03:55:49;2.20;33.60
578;DHT22;275;48.492;9.214;2023-03-01T03:58:17;2.00;34.00
578;DHT22;275;48.492;9.214;2023-03-01T04:00:46;2.10;34.10
578;DHT22;275;48.492;9.214;2023-03-01T04:03:14;2.50;33.10
578;DHT22;275;48.492;9.214;2023-03-01T04:05:42;2.00;34.50
578;DHT22;275;48.492;9.214;2023-03-01T04:08:11;2.00;34.60
578;DHT22;275;48.492;9.214;2023-03-01T04:10:39;2.10;34.60
578;DHT22;275;48.492;9.214;2023-03-01T04:13:08;2.00;34.90
578;DHT22;275;48.492;9.214;2023-03-01T04:15:36;1.70;35.50
578;DHT22;275;48.492;9.214;2023-03-01T04:18:03;1.60;36.40
578;DHT22;275;48.492;9.214;2023-03-01T04:20:32;2.30;34.30
578;DHT22;275;48.492;9.214;2023-03-01T04:23:01;2.50;33.80
578;DHT22;275;48.492;9.214;2023-03-01T04:25:38;2.60;33.20
578;DHT22;275;48.492;9.214;2023-03-01T04:28:05;2.90;32.70
578;DHT22;275;48.492;9.214;2023-03-01T04:30:33;2.90;32.80
578;DHT22;275;48.492;9.214;2023-03-01T04:33:02;2.90;32.50
578;DHT22;275;48.492;9.214;2023-03-01T04:35:29;3.10;32.30
578;DHT22;275;48.492;9.214;2023-03-01T04:37:56;3.30;31.70
578;DHT22;275;48.492;9.214;2023-03-01T04:40:23;3.40;31.40
578;DHT22;275;48.492;9.214;2023-03-01T04:42:52;3.60;31.00
578;DHT22;275;48.492;9.214;2023-03-01T04:45:19;4.00;30.10
578;DHT22;275;48.492;9.214;2023-03-01T04:47:46;3.80;30.10
578;DHT22;275;48.492;9.214;2023-03-01T04:50:15;3.20;31.90
578;DHT22;275;48.492;9.214;2023-03-01T04:52:43;3.20;32.20
578;DHT22;275;48.492;9.214;2023-03-01T04:55:10;3.20;31.80
578;DHT22;275;48.492;9.214;2023-03-01T04:57:37;3.20;31.80
578;DHT22;275;48.492;9.214;2023-03-01T05:00:07;3.50;31.30
578;DHT22;275;48.492;9.214;2023-03-01T05:02:46;3.30;31.60
578;DHT22;275;48.492;9.214;2023-03-01T05:05:14;3.10;31.90
578;DHT22;275;48.492;9.214;2023-03-01T05:07:40;2.80;32.80
578;DHT22;275;48.492;9.214;2023-03-01T05:10:08;2.80;33.00
578;DHT22;275;48.492;9.214;2023-03-01T05:12:35;2.80;33.10
578;DHT22;275;48.492;9.214;2023-03-01T05:15:05;2.80;32.90
578;DHT22;275;48.492;9.214;2023-03-01T05:17:32;2.80;33.10
578;DHT22;275;48.492;9.214;2023-03-01T05:19:59;2.40;34.10
578;DHT22;275;48.492;9.214;2023-03-01T05:22:26;2.30;34.80
578;DHT22;275;48.492;9.214;2023-03-01T05:24:53;2.00;35.30
578;DHT22;275;48.492;9.214;2023-03-01T05:27:20;2.40;34.50
578;DHT22;275;48.492;9.214;2023-03-01T05:29:47;2.50;34.40
578;DHT22;275;48.492;9.214;2023-03-01T05:32:15;2.30;34.40
578;DHT22;275;48.492;9.214;2023-03-01T05:34:42;2.10;35.20
578;DHT22;275;48.492;9.214;2023-03-01T05:37:11;2.30;35.10
578;DHT22;275;48.492;9.214;2023-03-01T05:39:39;2.40;34.70
578;DHT22;275;48.492;9.214;2023-03-01T05:42:10;2.20;35.10
578;DHT22;275;48.492;9.214;2023-03-01T05:44:37;2.10;35.60
578;DHT22;275;48.492;9.214;2023-03-01T05:47:04;2.30;35.30
578;DHT22;275;48.492;9.214;2023-03-01T05:49:33;2.40;34.90
578;DHT22;275;48.492;9.214;2023-03-01T05:52:00;2.70;34.10
578;DHT22;275;48.492;9.214;2023-03-01T05:54:27;2.30;35.10
578;DHT22;275;48.492;9.214;2023-03-01T05:56:53;2.50;34.80
578;DHT22;275;48.492;9.214;2023-03-01T05:59:22;2.10;35.50
578;DHT22;275;48.492;9.214;2023-03-01T06:01:48;1.90;36.50
578;DHT22;275;48.492;9.214;2023-03-01T06:04:15;2.20;35.70
578;DHT22;275;48.492;9.214;2023-03-01T06:06:43;2.20;35.50
578;DHT22;275;48.492;9.214;2023-03-01T06:09:10;2.20;36.00
578;DHT22;275;48.492;9.214;2023-03-01T06:11:37;2.40;35.00
578;DHT22;275;48.492;9.214;2023-03-01T06:14:05;2.30;35.50
578;DHT22;275;48.492;9.214;2023-03-01T06:16:33;2.60;34.50
578;DHT22;275;48.492;9.214;2023-03-01T06:19:00;2.60;34.50
578;DHT22;275;48.492;9.214;2023-03-01T06:21:26;2.70;34.90
578;DHT22;275;48.492;9.214;2023-03-01T06:23:55;2.90;34.20
578;DHT22;275;48.492;9.214;2023-03-01T06:26:21;2.90;33.70
578;DHT22;275;48.492;9.214;2023-03-01T06:28:48;2.90;33.80
578;DHT22;275;48.492;9.214;2023-03-01T06:31:15;2.80;34.10
578;DHT22;275;48.492;9.214;2023-03-01T06:33:43;2.60;34.50
578;DHT22;275;48.492;9.214;2023-03-01T06:36:10;2.60;34.70
578;DHT22;275;48.492;9.214;2023-03-01T06:38:37;2.50;34.60
578;DHT22;275;48.492;9.214;2023-03-01T06:41:07;2.60;35.00
578;DHT22;275;48.492;9.214;2023-03-01T06:43:34;3.00;33.70
578;DHT22;275;48.492;9.214;2023-03-01T06:46:04;2.70;34.50
578;DHT22;275;48.492;9.214;2023-03-01T06:48:32;2.70;34.30
578;DHT22;275;48.492;9.214;2023-03-01T06:50:59;2.50;35.00
578;DHT22;275;48.492;9.214;2023-03-01T06:53:27;2.40;35.40
578;DHT22;275;48.492;9.214;2023-03-01T06:55:54;2.50;35.20
578;DHT22;275;48.492;9.214;2023-03-01T06:58:23;2.60;34.70
578;DHT22;275;48.492;9.214;2023-03-01T07:00:50;2.60;34.80
578;DHT22;275;48.492;9.214;2023-03-01T07:03:16;2.40;35.30
578;DHT22;275;48.492;9.214;2023-03-01T07:05:43;2.30;35.60
578;DHT22;275;48.492;9.214;2023-03-01T07:08:11;2.70;35.00
578;DHT22;275;48.492;9.214;2023-03-01T07:10:37;2.70;34.50
578;DHT22;275;48.492;9.214;2023-03-01T07:13:04;2.90;35.00
578;DHT22;275;48.492;9.214;2023-03-01T07:15:33;2.90;34.10
578;DHT22;275;48.492;9.214;2023-03-01T07:18:00;3.10;33.60
578;DHT22;275;48.492;9.214;2023-03-01T07:20:27;3.20;33.40
578;DHT22;275;48.492;9.214;2023-03-01T07:22:55;3.40;32.80
578;DHT22;275;48.492;9.214;2023-03-01T07:25:24;3.40;32.80
578;DHT22;275;48.492;9.214;2023-03-01T07:27:51;3.00;33.50
578;DHT22;275;48.492;9.214;2023-03-01T07:30:19;2.70;34.40
578;DHT22;275;48.492;9.214;2023-03-01T07:32:47;2.70;34.60
578;DHT22;275;48.492;9.214;2023-03-01T07:35:14;2.50;35.10
578;DHT22;275;48.492;9.214;2023-03-01T07:37:41;2.60;35.10
578;DHT22;275;48.492;9.214;2023-03-01T07:40:09;2.90;34.30
578;DHT22;275;48.492;9.214;2023-03-01T07:42:36;3.00;34.00
578;DHT22;275;48.492;9.214;2023-03-01T07:45:04;3.30;33.70
578;DHT22;275;48.492;9.214;2023-03-01T07:47:32;3.20;33.40
578;DHT22;275;48.492;9.214;2023-03-01T07:50:00;3.00;34.10
578;DHT22;275;48.492;9.214;2023-03-01T07:52:28;3.40;33.20
578;DHT22;275;48.492;9.214;2023-03-01T07:54:56;3.40;33.00
578;DHT22;275;48.492;9.214;2023-03-01T07:57:23;3.70;32.20
578;DHT22;275;48.492;9.214;2023-03-01T07:59:50;3.20;33.30
578;DHT22;275;48.492;9.214;2023-03-01T08:02:16;3.40;33.10
578;DHT22;275;48.492;9.214;2023-03-01T08:04:43;3.00;34.10
578;DHT22;275;48.492;9.214;2023-03-01T08:07:11;2.60;35.10
578;DHT22;275;48.492;9.214;2023-03-01T08:09:38;3.10;33.90
578;DHT22;275;48.492;9.214;2023-03-01T08:12:06;3.40;33.50
578;DHT22;275;48.492;9.214;2023-03-01T08:14:33;3.40;33.30
578;DHT22;275;48.492;9.214;2023-03-01T08:16:59;3.10;33.90
578;DHT22;275;48.492;9.214;2023-03-01T08:19:28;3.20;33.90
578;DHT22;275;48.492;9.214;2023-03-01T08:21:55;3.00;34.40
578;DHT22;275;48.492;9.214;2023-03-01T08:24:25;3.00;34.40
578;DHT22;275;48.492;9.214;2023-03-01T08:26:52;3.40;33.40
578;DHT22;275;48.492;9.214;2023-03-01T08:29:19;3.30;33.30
578;DHT22;275;48.492;9.214;2023-03-01T08:31:46;3.30;36.00
578;DHT22;275;48.492;9.214;2023-03-01T08:34:14;3.90;32.50
578;DHT22;275;48.492;9.214;2023-03-01T08:36:43;4.20;31.40
578;DHT22;275;48.492;9.214;2023-03-01T08:39:12;4.30;33.20
578;DHT22;275;48.492;9.214;2023-03-01T08:41:41;4.70;30.20
578;DHT22;275;48.492;9.214;2023-03-01T08:44:09;4.70;30.00
578;DHT22;275;48.492;9.214;2023-03-01T08:46:38;4.90;29.70
578;DHT22;275;48.492;9.214;2023-03-01T08:49:06;4.30;30.60
578;DHT22;275;48.492;9.214;2023-03-01T08:51:34;4.30;30.40
578;DHT22;275;48.492;9.214;2023-03-01T08:54:02;4.00;31.30
578;DHT22;275;48.492;9.214;2023-03-01T08:56:29;4.20;31.10
578;DHT22;275;48.492;9.214;2023-03-01T08:58:57;4.50;35.00
578;DHT22;275;48.492;9.214;2023-03-01T09:01:24;4.80;30.60
578;DHT22;275;48.492;9.214;2023-03-01T09:03:51;5.50;29.60
578;DHT22;275;48.492;9.214;2023-03-01T09:06:18;5.50;29.00
578;DHT22;275;48.492;9.214;2023-03-01T09:08:47;4.90;30.60
578;DHT22;275;48.492;9.214;2023-03-01T09:11:17;5.00;29.40
578;DHT22;275;48.492;9.214;2023-03-01T09:13:44;4.60;30.20
578;DHT22;275;48.492;9.214;2023-03-01T09:16:14;4.80;30.00
578;DHT22;275;48.492;9.214;2023-03-01T09:18:42;5.20;29.00
578;DHT22;275;48.492;9.214;2023-03-01T09:21:10;5.50;28.70
578;DHT22;275;48.492;9.214;2023-03-01T09:23:38;5.60;28.80
578;DHT22;275;48.492;9.214;2023-03-01T09:26:05;6.00;27.80
578;DHT22;275;48.492;9.214;2023-03-01T09:28:32;6.30;27.10
578;DHT22;275;48.492;9.214;2023-03-01T09:30:59;5.80;27.80
578;DHT22;275;48.492;9.214;2023-03-01T09:33:28;5.80;28.40
578;DHT22;275;48.492;9.214;2023-03-01T09:35:59;5.30;28.70
578;DHT22;275;48.492;9.214;2023-03-01T09:38:26;5.10;29.50
578;DHT22;275;48.492;9.214;2023-03-01T09:40:53;5.50;28.70
578;DHT22;275;48.492;9.214;2023-03-01T09:43:25;5.40;28.70
578;DHT22;275;48.492;9.214;2023-03-01T09:45:55;5.60;28.30
578;DHT22;275;48.492;9.214;2023-03-01T09:48:29;6.00;27.70
578;DHT22;275;48.492;9.214;2023-03-01T09:51:01;6.60;26.80
578;DHT22;275;48.492;9.214;2023-03-01T09:53:32;6.80;26.30
578;DHT22;275;48.492;9.214;2023-03-01T09:56:03;6.30;26.70
578;DHT22;275;48.492;9.214;2023-03-01T09:58:42;5.90;27.90
578;DHT22;275;48.492;9.214;2023-03-01T10:01:26;6.00;27.80
578;DHT22;275;48.492;9.214;2023-03-01T10:04:09;6.30;27.10
578;DHT22;275;48.492;9.214;2023-03-01T10:06:40;6.50;26.80
578;DHT22;275;48.492;9.214;2023-03-01T10:09:13;6.80;26.10
578;DHT22;275;48.492;9.214;2023-03-01T10:11:43;7.50;25.70
578;DHT22;275;48.492;9.214;2023-03-01T10:14:19;9.20;23.10
578;DHT22;275;48.492;9.214;2023-03-01T10:16:54;11.10;20.60
578;DHT22;275;48.492;9.214;2023-03-01T10:19:29;14.20;17.20
578;DHT22;275;48.492;9.214;2023-03-01T10:22:00;15.00;16.30
578;DHT22;275;48.492;9.214;2023-03-01T10:24:32;16.60;14.60
578;DHT22;275;48.492;9.214;2023-03-01T10:27:05;15.60;14.60
578;DHT22;275;48.492;9.214;2023-03-01T10:29:39;14.20;15.00
578;DHT22;275;48.492;9.214;2023-03-01T10:32:11;13.00;16.50
578;DHT22;275;48.492;9.214;2023-03-01T10:34:39;12.20;16.90
578;DHT22;275;48.492;9.214;2023-03-01T10:37:11;12.10;17.40
578;DHT22;275;48.492;9.214;2023-03-01T10:39:55;12.90;16.40
578;DHT22;275;48.492;9.214;2023-03-01T10:42:26;14.10;15.40
578;DHT22;275;48.492;9.214;2023-03-01T10:44:54;14.60;15.40
578;DHT22;275;48.492;9.214;2023-03-01T10:47:22;15.30;14.40
578;DHT22;275;48.492;9.214;2023-03-01T10:49:57;16.30;13.80
578;DHT22;275;48.492;9.214;2023-03-01T10:52:33;17.40;12.60
578;DHT22;275;48.492;9.214;2023-03-01T10:55:03;18.10;11.70
578;DHT22;275;48.492;9.214;2023-03-01T10:57:36;18.90;11.10
578;DHT22;275;48.492;9.214;2023-03-01T11:00:25;18.90;11.10
578;DHT22;275;48.492;9.214;2023-03-01T11:03:08;18.10;11.20
578;DHT22;275;48.492;9.214;2023-03-01T11:08:40;19.20;11.00
578;DHT22;275;48.492;9.214;2023-03-01T11:11:28;17.30;11.80
578;DHT22;275;48.492;9.214;2023-03-01T11:13:59;18.20;11.30
578;DHT22;275;48.492;9.214;2023-03-01T11:16:34;17.40;12.10
578;DHT22;275;48.492;9.214;2023-03-01T11:19:19;15.70;12.70
578;DHT22;275;48.492;9.214;2023-03-01T11:21:59;13.60;14.40
578;DHT22;275;48.492;9.214;2023-03-01T11:24:32;11.20;17.60
578;DHT22;275;48.492;9.214;2023-03-01T11:27:02;9.90;19.90
578;DHT22;275;48.492;9.214;2023-03-01T11:29:34;9.30;20.60
578;DHT22;275;48.492;9.214;2023-03-01T11:32:05;9.10;21.20
578;DHT22;275;48.492;9.214;2023-03-01T11:37:10;9.60;20.80
578;DHT22;275;48.492;9.214;2023-03-01T11:39:43;9.20;21.20
578;DHT22;275;48.492;9.214;2023-03-01T11:42:18;8.50;22.20
578;DHT22;275;48.492;9.214;2023-03-01T11:44:48;8.40;22.40
578;DHT22;275;48.492;9.214;2023-03-01T11:47:33;8.30;22.70
578;DHT22;275;48.492;9.214;2023-03-01T11:50:18;8.80;22.20
578;DHT22;275;48.492;9.214;2023-03-01T11:53:00;8.90;22.00
578;DHT22;275;48.492;9.214;2023-03-01T11:55:41;8.30;22.90
578;DHT22;275;48.492;9.214;2023-03-01T11:58:27;7.90;23.40
578;DHT22;275;48.492;9.214;2023-03-01T12:01:08;8.20;23.10
578;DHT22;275;48.492;9.214;2023-03-01T12:03:51;7.70;23.70
578;DHT22;275;48.492;9.214;2023-03-01T12:06:48;7.40;24.30
578;DHT22;275;48.492;9.214;2023-03-01T12:09:31;7.60;24.20
578;DHT22;275;48.492;9.214;2023-03-01T12:12:17;8.10;23.30
578;DHT22;275;48.492;9.214;2023-03-01T12:15:22;8.20;23.30
578;DHT22;275;48.492;9.214;2023-03-01T12:18:12;8.10;23.60
578;DHT22;275;48.492;9.214;2023-03-01T12:20:45;8.40;23.00
578;DHT22;275;48.492;9.214;2023-03-01T12:26:23;8.40;23.30
578;DHT22;275;48.492;9.214;2023-03-01T12:29:02;8.40;23.30
578;DHT22;275;48.492;9.214;2023-03-01T12:34:55;8.60;23.00
578;DHT22;275;48.492;9.214;2023-03-01T12:37:33;10.20;20.60
578;DHT22;275;48.492;9.214;2023-03-01T12:40:27;11.00;19.50
578;DHT22;275;48.492;9.214;2023-03-01T12:43:08;14.00;16.50
578;DHT22;275;48.492;9.214;2023-03-01T12:45:59;16.10;14.40
578;DHT22;275;48.492;9.214;2023-03-01T12:48:36;15.10;14.40
578;DHT22;275;48.492;9.214;2023-03-01T12:51:10;13.70;15.80
578;DHT22;275;48.492;9.214;2023-03-01T12:53:40;13.90;15.90
578;DHT22;275;48.492;9.214;2023-03-01T12:56:10;14.10;15.50
578;DHT22;275;48.492;9.214;2023-03-01T12:58:44;14.70;14.90
578;DHT22;275;48.492;9.214;2023-03-01T13:01:19;15.80;14.10
578;DHT22;275;48.492;9.214;2023-03-01T13:04:13;15.60;13.80
578;DHT22;275;48.492;9.214;2023-03-01T13:06:47;15.70;14.00
578;DHT22;275;48.492;9.214;2023-03-01T13:09:22;15.60;14.20
578;DHT22;275;48.492;9.214;2023-03-01T13:11:51;15.80;13.90
578;DHT22;275;48.492;9.214;2023-03-01T13:14:36;16.70;13.40
578;DHT22;275;48.492;9.214;2023-03-01T13:17:07;18.80;11.70
578;DHT22;275;48.492;9.214;2023-03-01T13:19:57;17.30;12.20
578;DHT22;275;48.492;9.214;2023-03-01T13:22:28;17.10;12.80
578;DHT22;275;48.492;9.214;2023-03-01T13:25:13;17.30;12.50
578;DHT22;275;48.492;9.214;2023-03-01T13:27:40;17.70;11.90
578;DHT22;275;48.492;9.214;2023-03-01T13:30:41;17.10;12.40
578;DHT22;275;48.492;9.214;2023-03-01T13:33:33;17.30;12.50
578;DHT22;275;48.492;9.214;2023-03-01T13:36:02;17.40;12.10
578;DHT22;275;48.492;9.214;2023-03-01T13:38:47;17.50;12.20
578;DHT22;275;48.492;9.214;2023-03-01T13:41:16;18.40;11.60
578;DHT22;275;48.492;9.214;2023-03-01T13:43:44;17.50;12.20
578;DHT22;275;48.492;9.214;2023-03-01T13:46:20;16.60;12.90
578;DHT22;275;48.492;9.214;2023-03-01T13:48:50;17.10;12.80
578;DHT22;275;48.492;9.214;2023-03-01T13:51:22;17.70;12.10
578;DHT22;275;48.492;9.214;2023-03-01T13:53:50;16.30;13.10
578;DHT22;275;48.492;9.214;2023-03-01T13:56:19;16.80;12.40
578;DHT22;275;48.492;9.214;2023-03-01T13:58:49;15.80;13.20
578;DHT22;275;48.492;9.214;2023-03-01T14:01:35;15.20;14.30
578;DHT22;275;48.492;9.214;2023-03-01T14:04:03;14.20;14.90
578;DHT22;275;48.492;9.214;2023-03-01T14:06:44;14.20;15.30
578;DHT22;275;48.492;9.214;2023-03-01T14:09:17;13.90;15.40
578;DHT22;275;48.492;9.214;2023-03-01T14:12:13;13.50;16.10
578;DHT22;275;48.492;9.214;2023-03-01T14:14:49;14.50;15.20
578;DHT22;275;48.492;9.214;2023-03-01T14:20:27;13.30;16.30
578;DHT22;275;48.492;9.214;2023-03-01T14:22:57;14.00;15.40
578;DHT22;275;48.492;9.214;2023-03-01T14:25:28;13.90;15.60
578;DHT22;275;48.492;9.214;2023-03-01T14:27:59;13.00;16.50
578;DHT22;275;48.492;9.214;2023-03-01T14:30:30;12.60;17.20
578;DHT22;275;48.492;9.214;2023-03-01T14:32:59;13.00;16.80
578;DHT22;275;48.492;9.214;2023-03-01T14:35:30;12.60;17.10
578;DHT22;275;48.492;9.214;2023-03-01T14:38:00;12.00;17.70
578;DHT22;275;48.492;9.214;2023-03-01T14:40:30;11.30;19.20
578;DHT22;275;48.492;9.214;2023-03-01T14:43:00;11.40;18.40
578;DHT22;275;48.492;9.214;2023-03-01T14:45:29;10.90;19.20
578;DHT22;275;48.492;9.214;2023-03-01T14:48:00;10.90;19.40
578;DHT22;275;48.492;9.214;2023-03-01T14:50:31;11.20;19.80
578;DHT22;275;48.492;9.214;2023-03-01T14:53:00;10.40;20.10
578;DHT22;275;48.492;9.214;2023-03-01T14:55:31;10.40;20.50
578;DHT22;275;48.492;9.214;2023-03-01T14:58:03;9.80;22.00
578;DHT22;275;48.492;9.214;2023-03-01T15:00:31;9.90;21.80
578;DHT22;275;48.492;9.214;2023-03-01T15:03:04;10.30;20.50
578;DHT22;275;48.492;9.214;2023-03-01T15:05:37;10.60;19.90
578;DHT22;275;48.492;9.214;2023-03-01T15:08:04;10.00;21.20
578;DHT22;275;48.492;9.214;2023-03-01T15:10:33;9.70;22.10
578;DHT22;275;48.492;9.214;2023-03-01T15:13:10;9.70;22.20
578;DHT22;275;48.492;9.214;2023-03-01T15:15:41;9.60;22.40
578;DHT22;275;48.492;9.214;2023-03-01T15:18:17;9.80;22.20
578;DHT22;275;48.492;9.214;2023-03-01T15:20:47;9.70;22.50
578;DHT22;275;48.492;9.214;2023-03-01T15:23:20;9.90;22.30
578;DHT22;275;48.492;9.214;2023-03-01T15:25:48;9.90;22.50
578;DHT22;275;48.492;9.214;2023-03-01T15:28:22;9.60;23.20
578;DHT22;275;48.492;9.214;2023-03-01T15:30:54;9.90;22.10
578;DHT22;275;48.492;9.214;2023-03-01T15:33:33;9.70;22.50
578;DHT22;275;48.492;9.214;2023-03-01T15:36:28;9.30;23.10
578;DHT22;275;48.492;9.214;2023-03-01T15:38:52;9.10;23.50
578;DHT22;275;48.492;9.214;2023-03-01T15:41:25;9.40;23.20
578;DHT22;275;48.492;9.214;2023-03-01T15:43:53;9.50;23.20
578;DHT22;275;48.492;9.214;2023-03-01T15:46:27;9.50;23.10
578;DHT22;275;48.492;9.214;2023-03-01T15:48:57;9.30;23.20
578;DHT22;275;48.492;9.214;2023-03-01T15:51:31;8.90;23.80
578;DHT22;275;48.492;9.214;2023-03-01T15:54:02;8.90;23.70
578;DHT22;275;48.492;9.214;2023-03-01T15:56:30;9.10;23.50
578;DHT22;275;48.492;9.214;2023-03-01T15:59:01;9.00;23.70
578;DHT22;275;48.492;9.214;2023-03-01T16:01:29;9.20;23.20
578;DHT22;275;48.492;9.214;2023-03-01T16:03:56;9.20;23.50
578;DHT22;275;48.492;9.214;2023-03-01T16:06:24;9.00;23.50
578;DHT22;275;48.492;9.214;2023-03-01T16:08:52;8.70;23.80
578;DHT22;275;48.492;9.214;2023-03-01T16:11:19;8.60;24.60
578;DHT22;275;48.492;9.214;2023-03-01T16:13:46;9.00;23.80
578;DHT22;275;48.492;9.214;2023-03-01T16:16:14;9.10;23.80
578;DHT22;275;48.492;9.214;2023-03-01T16:18:42;9.40;22.80
578;DHT22;275;48.492;9.214;2023-03-01T16:21:19;9.20;22.90
578;DHT22;275;48.492;9.214;2023-03-01T16:23:46;9.10;23.40
578;DHT22;275;48.492;9.214;2023-03-01T16:26:15;9.00;23.20
578;DHT22;275;48.492;9.214;2023-03-01T16:28:42;9.10;23.00
578;DHT22;275;48.492;9.214;2023-03-01T16:31:10;9.00;23.30
578;DHT22;275;48.492;9.214;2023-03-01T16:33:37;8.90;23.50
578;DHT22;275;48.492;9.214;2023-03-01T16:36:09;8.40;24.00
578;DHT22;275;48.492;9.214;2023-03-01T16:38:36;8.50;24.20
578;DHT22;275;48.492;9.214;2023-03-01T16:41:03;8.60;23.90
578;DHT22;275;48.492;9.214;2023-03-01T16:43:32;8.60;23.90
578;DHT22;275;48.492;9.214;2023-03-01T16:45:58;8.90;23.40
578;DHT22;275;48.492;9.214;2023-03-01T16:48:26;8.50;24.20
578;DHT22;275;48.492;9.214;2023-03-01T16:50:57;8.70;23.50
578;DHT22;275;48.492;9.214;2023-03-01T16:53:24;8.70;23.60
578;DHT22;275;48.492;9.214;2023-03-01T16:55:55;8.60;23.40
578;DHT22;275;48.492;9.214;2023-03-01T16:58:22;8.50;24.20
578;DHT22;275;48.492;9.214;2023-03-01T17:00:51;8.50;23.80
578;DHT22;275;48.492;9.214;2023-03-01T17:03:19;8.50;23.80
578;DHT22;275;48.492;9.214;2023-03-01T17:05:46;8.70;23.40
578;DHT22;275;48.492;9.214;2023-03-01T17:08:13;8.50;23.90
578;DHT22;275;48.492;9.214;2023-03-01T17:10:41;8.50;23.90
578;DHT22;275;48.492;9.214;2023-03-01T17:13:08;8.00;24.50
578;DHT22;275;48.492;9.214;2023-03-01T17:15:38;8.00;24.70
578;DHT22;275;48.492;9.214;2023-03-01T17:18:06;8.20;24.40
578;DHT22;275;48.492;9.214;2023-03-01T17:20:33;8.20;24.30
578;DHT22;275;48.492;9.214;2023-03-01T17:23:00;8.10;24.60
578;DHT22;275;48.492;9.214;2023-03-01T17:25:26;7.80;24.90
578;DHT22;275;48.492;9.214;2023-03-01T17:27:53;8.00;24.60